sensor_id;sensor_type;location;lat;lon;timestamp;P1;durP1;ratioP1;P2;durP2;ratioP2
8100;SDS011;4093;53.470;9.832;2022-09-09T00:00:59;48.67;;;29.40;;
8100;SDS011;4093;53.470;9.832;2022-09-09T00:03:31;51.47;;;30.50;;
8100;SDS011;4093;53.470;9.832;2022-09-09T00:06:07;43.70;;;28.20;;
8100;SDS011;4093;53.470;9.832;2022-09-09T00:08:44;40.50;;;26.97;;
8100;SDS011;4093;53.470;9.832;2022-09-09T00:11:25;41.03;;;26.77;;
8100;SDS011;4093;53.470;9.832;2022-09-09T00:13:54;41.80;;;27.13;;
8100;SDS011;4093;53.470;9.832;2022-09-09T00:16:27;42.50;;;26.33;;
8100;SDS011;4093;53.470;9.832;2022-09-09T00:18:57;34.07;;;22.87;;
8100;SDS011;4093;53.470;9.832;2022-09-09T00:21:32;37.63;;;25.87;;
8100;SDS011;4093;53.470;9.832;2022-09-09T00:24:01;39.47;;;25.77;;
8100;SDS011;4093;53.470;9.832;2022-09-09T00:26:39;37.17;;;26.00;;
8100;SDS011;4093;53.470;9.832;2022-09-09T00:29:13;35.50;;;22.63;;
8100;SDS011;4093;53.470;9.832;2022-09-09T00:31:48;35.63;;;23.53;;
8100;SDS011;4093;53.470;9.832;2022-09-09T00:34:18;37.13;;;24.33;;
8100;SDS011;4093;53.470;9.832;2022-09-09T00:36:47;33.17;;;22.07;;
8100;SDS011;4093;53.470;9.832;2022-09-09T00:39:20;32.77;;;23.30;;
8100;SDS011;4093;53.470;9.832;2022-09-09T00:41:55;32.20;;;21.97;;
8100;SDS011;4093;53.470;9.832;2022-09-09T00:44:33;30.47;;;20.67;;
8100;SDS011;4093;53.470;9.832;2022-09-09T00:47:07;26.87;;;19.53;;
8100;SDS011;4093;53.470;9.832;2022-09-09T00:49:47;31.97;;;21.63;;
8100;SDS011;4093;53.470;9.832;2022-09-09T00:52:30;30.07;;;21.50;;
8100;SDS011;4093;53.470;9.832;2022-09-09T00:55:07;29.47;;;21.30;;
8100;SDS011;4093;53.470;9.832;2022-09-09T00:57:40;29.60;;;22.67;;
8100;SDS011;4093;53.470;9.832;2022-09-09T01:00:17;27.47;;;21.30;;
8100;SDS011;4093;53.470;9.832;2022-09-09T01:02:51;26.40;;;19.53;;
8100;SDS011;4093;53.470;9.832;2022-09-09T01:05:24;23.57;;;17.97;;
8100;SDS011;4093;53.470;9.832;2022-09-09T01:08:00;22.73;;;18.00;;
8100;SDS011;4093;53.470;9.832;2022-09-09T01:10:30;26.47;;;19.43;;
8100;SDS011;4093;53.470;9.832;2022-09-09T01:13:08;21.13;;;16.43;;
8100;SDS011;4093;53.470;9.832;2022-09-09T01:15:41;23.03;;;17.30;;
8100;SDS011;4093;53.470;9.832;2022-09-09T01:18:13;23.43;;;16.80;;
8100;SDS011;4093;53.470;9.832;2022-09-09T01:20:44;21.67;;;16.70;;
8100;SDS011;4093;53.470;9.832;2022-09-09T01:23:20;21.63;;;17.03;;
8100;SDS011;4093;53.470;9.832;2022-09-09T01:26:20;20.10;;;15.67;;
8100;SDS011;4093;53.470;9.832;2022-09-09T01:28:51;21.33;;;17.13;;
8100;SDS011;4093;53.470;9.832;2022-09-09T01:31:19;23.03;;;17.83;;
8100;SDS011;4093;53.470;9.832;2022-09-09T01:33:47;23.17;;;17.77;;
8100;SDS011;4093;53.470;9.832;2022-09-09T01:36:16;18.70;;;15.60;;
8100;SDS011;4093;53.470;9.832;2022-09-09T01:38:48;22.23;;;17.27;;
8100;SDS011;4093;53.470;9.832;2022-09-09T01:41:14;22.70;;;17.17;;
8100;SDS011;4093;53.470;9.832;2022-09-09T01:43:42;21.70;;;16.77;;
8100;SDS011;4093;53.470;9.832;2022-09-09T01:46:09;20.43;;;16.37;;
8100;SDS011;4093;53.470;9.832;2022-09-09T01:48:38;16.83;;;14.03;;
8100;SDS011;4093;53.470;9.832;2022-09-09T01:51:05;19.10;;;15.80;;
8100;SDS011;4093;53.470;9.832;2022-09-09T01:53:33;17.67;;;15.60;;
8100;SDS011;4093;53.470;9.832;2022-09-09T01:56:02;17.07;;;13.47;;
8100;SDS011;4093;53.470;9.832;2022-09-09T01:58:44;17.27;;;13.77;;
8100;SDS011;4093;53.470;9.832;2022-09-09T02:01:25;14.17;;;11.77;;
8100;SDS011;4093;53.470;9.832;2022-09-09T02:03:59;12.87;;;11.47;;
8100;SDS011;4093;53.470;9.832;2022-09-09T02:06:30;17.20;;;13.70;;
8100;SDS011;4093;53.470;9.832;2022-09-09T02:09:00;17.13;;;12.87;;
8100;SDS011;4093;53.470;9.832;2022-09-09T02:11:29;16.53;;;13.57;;
8100;SDS011;4093;53.470;9.832;2022-09-09T02:14:00;18.43;;;13.77;;
8100;SDS011;4093;53.470;9.832;2022-09-09T02:16:30;17.07;;;14.73;;
8100;SDS011;4093;53.470;9.832;2022-09-09T02:19:01;15.30;;;12.60;;
8100;SDS011;4093;53.470;9.832;2022-09-09T02:21:32;21.50;;;16.30;;
8100;SDS011;4093;53.470;9.832;2022-09-09T02:24:00;20.97;;;16.23;;
8100;SDS011;4093;53.470;9.832;2022-09-09T02:26:30;18.30;;;15.97;;
8100;SDS011;4093;53.470;9.832;2022-09-09T02:29:02;16.63;;;14.43;;
8100;SDS011;4093;53.470;9.832;2022-09-09T02:31:30;20.27;;;14.10;;
8100;SDS011;4093;53.470;9.832;2022-09-09T02:34:01;18.77;;;14.90;;
8100;SDS011;4093;53.470;9.832;2022-09-09T02:36:31;20.30;;;16.00;;
8100;SDS011;4093;53.470;9.832;2022-09-09T02:39:00;16.80;;;12.90;;
8100;SDS011;4093;53.470;9.832;2022-09-09T02:41:28;17.50;;;14.23;;
8100;SDS011;4093;53.470;9.832;2022-09-09T02:43:57;16.03;;;14.30;;
8100;SDS011;4093;53.470;9.832;2022-09-09T02:46:32;19.63;;;15.53;;
8100;SDS011;4093;53.470;9.832;2022-09-09T02:49:08;18.47;;;15.40;;
8100;SDS011;4093;53.470;9.832;2022-09-09T02:51:38;19.83;;;15.93;;
8100;SDS011;4093;53.470;9.832;2022-09-09T02:54:16;19.47;;;13.93;;
8100;SDS011;4093;53.470;9.832;2022-09-09T02:56:49;16.93;;;14.57;;
8100;SDS011;4093;53.470;9.832;2022-09-09T02:59:19;20.20;;;15.30;;
8100;SDS011;4093;53.470;9.832;2022-09-09T03:01:47;17.63;;;15.00;;
8100;SDS011;4093;53.470;9.832;2022-09-09T03:04:14;22.73;;;16.67;;
8100;SDS011;4093;53.470;9.832;2022-09-09T03:06:40;20.10;;;16.17;;
8100;SDS011;4093;53.470;9.832;2022-09-09T03:09:07;20.73;;;15.90;;
8100;SDS011;4093;53.470;9.832;2022-09-09T03:11:35;24.03;;;16.63;;
8100;SDS011;4093;53.470;9.832;2022-09-09T03:14:03;18.77;;;14.40;;
8100;SDS011;4093;53.470;9.832;2022-09-09T03:16:30;19.93;;;15.90;;
8100;SDS011;4093;53.470;9.832;2022-09-09T03:18:59;18.30;;;14.47;;
8100;SDS011;4093;53.470;9.832;2022-09-09T03:21:26;20.40;;;15.77;;
8100;SDS011;4093;53.470;9.832;2022-09-09T03:23:52;20.43;;;15.10;;
8100;SDS011;4093;53.470;9.832;2022-09-09T03:26:18;19.40;;;15.70;;
8100;SDS011;4093;53.470;9.832;2022-09-09T03:28:45;19.33;;;15.07;;
8100;SDS011;4093;53.470;9.832;2022-09-09T03:31:12;18.87;;;15.00;;
8100;SDS011;4093;53.470;9.832;2022-09-09T03:33:39;20.50;;;16.13;;
8100;SDS011;4093;53.470;9.832;2022-09-09T03:36:08;24.40;;;15.90;;
8100;SDS011;4093;53.470;9.832;2022-09-09T03:38:35;22.47;;;15.47;;
8100;SDS011;4093;53.470;9.832;2022-09-09T03:41:02;20.63;;;16.80;;
8100;SDS011;4093;53.470;9.832;2022-09-09T03:43:31;24.30;;;16.43;;
8100;SDS011;4093;53.470;9.832;2022-09-09T03:45:58;23.50;;;16.47;;
8100;SDS011;4093;53.470;9.832;2022-09-09T03:48:24;22.30;;;15.53;;
8100;SDS011;4093;53.470;9.832;2022-09-09T03:50:53;23.40;;;17.60;;
8100;SDS011;4093;53.470;9.832;2022-09-09T03:53:22;25.40;;;17.83;;
8100;SDS011;4093;53.470;9.832;2022-09-09T03:55:51;22.20;;;15.47;;
8100;SDS011;4093;53.470;9.832;2022-09-09T03:58:20;20.53;;;15.50;;
8100;SDS011;4093;53.470;9.832;2022-09-09T04:00:58;24.13;;;15.60;;
8100;SDS011;4093;53.470;9.832;2022-09-09T04:03:26;23.00;;;15.23;;
8100;SDS011;4093;53.470;9.832;2022-09-09T04:05:54;20.07;;;15.77;;
8100;SDS011;4093;53.470;9.832;2022-09-09T04:08:23;19.57;;;15.30;;
8100;SDS011;4093;53.470;9.832;2022-09-09T04:10:50;23.80;;;15.23;;
8100;SDS011;4093;53.470;9.832;2022-09-09T04:13:17;22.10;;;14.17;;
8100;SDS011;4093;53.470;9.832;2022-09-09T04:15:49;17.57;;;13.97;;
8100;SDS011;4093;53.470;9.832;2022-09-09T04:18:17;16.50;;;13.10;;
8100;SDS011;4093;53.470;9.832;2022-09-09T04:20:45;16.97;;;13.30;;
8100;SDS011;4093;53.470;9.832;2022-09-09T04:23:12;18.90;;;11.47;;
8100;SDS011;4093;53.470;9.832;2022-09-09T04:25:43;19.40;;;12.17;;
8100;SDS011;4093;53.470;9.832;2022-09-09T04:28:11;12.57;;;10.63;;
8100;SDS011;4093;53.470;9.832;2022-09-09T04:30:38;15.13;;;10.80;;
8100;SDS011;4093;53.470;9.832;2022-09-09T04:33:05;16.27;;;11.33;;
8100;SDS011;4093;53.470;9.832;2022-09-09T04:35:32;15.10;;;10.37;;
8100;SDS011;4093;53.470;9.832;2022-09-09T04:37:59;14.73;;;9.80;;
8100;SDS011;4093;53.470;9.832;2022-09-09T04:40:27;13.53;;;8.87;;
8100;SDS011;4093;53.470;9.832;2022-09-09T04:42:57;15.17;;;10.60;;
8100;SDS011;4093;53.470;9.832;2022-09-09T04:45:23;13.33;;;8.67;;
8100;SDS011;4093;53.470;9.832;2022-09-09T04:47:51;12.83;;;8.97;;
8100;SDS011;4093;53.470;9.832;2022-09-09T04:50:17;12.90;;;9.33;;
8100;SDS011;4093;53.470;9.832;2022-09-09T04:52:44;18.53;;;8.97;;
8100;SDS011;4093;53.470;9.832;2022-09-09T04:55:10;11.70;;;8.30;;
8100;SDS011;4093;53.470;9.832;2022-09-09T04:57:37;11.20;;;8.37;;
8100;SDS011;4093;53.470;9.832;2022-09-09T05:00:06;9.03;;;8.03;;
8100;SDS011;4093;53.470;9.832;2022-09-09T05:02:36;9.77;;;8.20;;
8100;SDS011;4093;53.470;9.832;2022-09-09T05:05:03;13.10;;;8.00;;
8100;SDS011;4093;53.470;9.832;2022-09-09T05:07:30;13.03;;;7.93;;
8100;SDS011;4093;53.470;9.832;2022-09-09T05:09:56;11.60;;;7.60;;
8100;SDS011;4093;53.470;9.832;2022-09-09T05:12:23;10.23;;;7.23;;
8100;SDS011;4093;53.470;9.832;2022-09-09T05:14:51;13.57;;;7.10;;
8100;SDS011;4093;53.470;9.832;2022-09-09T05:17:19;11.63;;;6.87;;
8100;SDS011;4093;53.470;9.832;2022-09-09T05:19:46;9.73;;;6.30;;
8100;SDS011;4093;53.470;9.832;2022-09-09T05:22:13;9.50;;;6.50;;
8100;SDS011;4093;53.470;9.832;2022-09-09T05:24:45;8.57;;;6.27;;
8100;SDS011;4093;53.470;9.832;2022-09-09T05:27:11;9.17;;;6.63;;
8100;SDS011;4093;53.470;9.832;2022-09-09T05:29:38;7.00;;;6.30;;
8100;SDS011;4093;53.470;9.832;2022-09-09T05:32:06;8.80;;;6.30;;
8100;SDS011;4093;53.470;9.832;2022-09-09T05:34:34;6.47;;;5.80;;
8100;SDS011;4093;53.470;9.832;2022-09-09T05:37:02;9.27;;;6.70;;
8100;SDS011;4093;53.470;9.832;2022-09-09T05:39:29;6.40;;;5.40;;
8100;SDS011;4093;53.470;9.832;2022-09-09T05:41:55;12.20;;;6.00;;
8100;SDS011;4093;53.470;9.832;2022-09-09T05:44:22;11.63;;;6.33;;
8100;SDS011;4093;53.470;9.832;2022-09-09T05:46:52;11.67;;;6.23;;
8100;SDS011;4093;53.470;9.832;2022-09-09T05:49:19;11.60;;;6.57;;
8100;SDS011;4093;53.470;9.832;2022-09-09T05:51:47;7.83;;;6.83;;
8100;SDS011;4093;53.470;9.832;2022-09-09T05:54:15;12.57;;;6.50;;
8100;SDS011;4093;53.470;9.832;2022-09-09T05:56:42;8.57;;;6.13;;
8100;SDS011;4093;53.470;9.832;2022-09-09T05:59:09;10.60;;;6.40;;
8100;SDS011;4093;53.470;9.832;2022-09-09T06:01:36;9.57;;;6.13;;
8100;SDS011;4093;53.470;9.832;2022-09-09T06:04:05;9.57;;;6.97;;
8100;SDS011;4093;53.470;9.832;2022-09-09T06:06:32;10.03;;;6.50;;
8100;SDS011;4093;53.470;9.832;2022-09-09T06:09:03;9.33;;;6.90;;
8100;SDS011;4093;53.470;9.832;2022-09-09T06:11:32;13.83;;;7.17;;
8100;SDS011;4093;53.470;9.832;2022-09-09T06:14:01;11.90;;;7.60;;
8100;SDS011;4093;53.470;9.832;2022-09-09T06:16:29;10.33;;;6.00;;
8100;SDS011;4093;53.470;9.832;2022-09-09T06:18:57;8.67;;;6.73;;
8100;SDS011;4093;53.470;9.832;2022-09-09T06:21:25;10.70;;;7.60;;
8100;SDS011;4093;53.470;9.832;2022-09-09T06:23:52;8.90;;;7.10;;
8100;SDS011;4093;53.470;9.832;2022-09-09T06:26:21;10.73;;;7.53;;
8100;SDS011;4093;53.470;9.832;2022-09-09T06:28:50;8.57;;;7.03;;
8100;SDS011;4093;53.470;9.832;2022-09-09T06:31:19;10.07;;;7.37;;
8100;SDS011;4093;53.470;9.832;2022-09-09T06:33:47;11.27;;;7.23;;
8100;SDS011;4093;53.470;9.832;2022-09-09T06:36:15;8.33;;;7.43;;
8100;SDS011;4093;53.470;9.832;2022-09-09T06:38:44;9.77;;;6.83;;
8100;SDS011;4093;53.470;9.832;2022-09-09T06:41:11;10.00;;;6.53;;
8100;SDS011;4093;53.470;9.832;2022-09-09T06:43:40;10.70;;;7.00;;
8100;SDS011;4093;53.470;9.832;2022-09-09T06:46:08;9.57;;;6.87;;
8100;SDS011;4093;53.470;9.832;2022-09-09T06:48:38;10.20;;;6.63;;
8100;SDS011;4093;53.470;9.832;2022-09-09T06:51:06;8.20;;;6.27;;
8100;SDS011;4093;53.470;9.832;2022-09-09T06:53:35;8.50;;;6.77;;
8100;SDS011;4093;53.470;9.832;2022-09-09T06:56:13;9.30;;;7.03;;
8100;SDS011;4093;53.470;9.832;2022-09-09T06:58:45;8.80;;;6.30;;
8100;SDS011;4093;53.470;9.832;2022-09-09T07:01:15;11.80;;;6.70;;
8100;SDS011;4093;53.470;9.832;2022-09-09T07:03:45;12.50;;;6.37;;
8100;SDS011;4093;53.470;9.832;2022-09-09T07:06:13;9.50;;;6.67;;
8100;SDS011;4093;53.470;9.832;2022-09-09T07:08:42;7.97;;;5.90;;
8100;SDS011;4093;53.470;9.832;2022-09-09T07:11:08;9.30;;;5.87;;
8100;SDS011;4093;53.470;9.832;2022-09-09T07:13:36;9.50;;;6.00;;
8100;SDS011;4093;53.470;9.832;2022-09-09T07:16:04;8.70;;;6.17;;
8100;SDS011;4093;53.470;9.832;2022-09-09T07:18:32;6.43;;;5.70;;
8100;SDS011;4093;53.470;9.832;2022-09-09T07:20:59;7.47;;;5.80;;
8100;SDS011;4093;53.470;9.832;2022-09-09T07:23:27;9.03;;;5.70;;
8100;SDS011;4093;53.470;9.832;2022-09-09T07:25:54;6.80;;;5.53;;
8100;SDS011;4093;53.470;9.832;2022-09-09T07:28:20;7.03;;;5.47;;
8100;SDS011;4093;53.470;9.832;2022-09-09T07:30:52;8.73;;;5.07;;
8100;SDS011;4093;53.470;9.832;2022-09-09T07:33:21;6.93;;;5.60;;
8100;SDS011;4093;53.470;9.832;2022-09-09T07:35:49;6.83;;;5.30;;
8100;SDS011;4093;53.470;9.832;2022-09-09T07:38:16;10.40;;;5.87;;
8100;SDS011;4093;53.470;9.832;2022-09-09T07:40:43;6.60;;;5.00;;
8100;SDS011;4093;53.470;9.832;2022-09-09T07:43:10;6.40;;;4.90;;
8100;SDS011;4093;53.470;9.832;2022-09-09T07:45:37;7.93;;;5.20;;
8100;SDS011;4093;53.470;9.832;2022-09-09T07:48:05;8.33;;;5.20;;
8100;SDS011;4093;53.470;9.832;2022-09-09T07:50:33;6.80;;;4.93;;
8100;SDS011;4093;53.470;9.832;2022-09-09T07:53:00;7.73;;;4.80;;
8100;SDS011;4093;53.470;9.832;2022-09-09T07:55:27;6.50;;;4.63;;
8100;SDS011;4093;53.470;9.832;2022-09-09T07:57:54;5.77;;;4.73;;
8100;SDS011;4093;53.470;9.832;2022-09-09T08:00:21;6.23;;;4.20;;
8100;SDS011;4093;53.470;9.832;2022-09-09T08:02:48;6.33;;;4.53;;
8100;SDS011;4093;53.470;9.832;2022-09-09T08:05:15;5.83;;;3.90;;
8100;SDS011;4093;53.470;9.832;2022-09-09T08:07:43;6.73;;;4.63;;
8100;SDS011;4093;53.470;9.832;2022-09-09T08:10:10;5.80;;;4.25;;
8100;SDS011;4093;53.470;9.832;2022-09-09T08:12:39;7.97;;;4.15;;
8100;SDS011;4093;53.470;9.832;2022-09-09T08:15:06;6.28;;;3.83;;
8100;SDS011;4093;53.470;9.832;2022-09-09T08:17:33;4.50;;;4.10;;
8100;SDS011;4093;53.470;9.832;2022-09-09T08:19:59;4.63;;;4.00;;
8100;SDS011;4093;53.470;9.832;2022-09-09T08:22:29;5.20;;;3.47;;
8100;SDS011;4093;53.470;9.832;2022-09-09T08:24:58;5.50;;;3.50;;
8100;SDS011;4093;53.470;9.832;2022-09-09T08:27:25;5.20;;;3.20;;
8100;SDS011;4093;53.470;9.832;2022-09-09T08:29:51;3.63;;;2.80;;
8100;SDS011;4093;53.470;9.832;2022-09-09T08:32:18;5.95;;;3.60;;
8100;SDS011;4093;53.470;9.832;2022-09-09T08:34:45;5.60;;;3.33;;
8100;SDS011;4093;53.470;9.832;2022-09-09T08:37:11;3.50;;;2.90;;
8100;SDS011;4093;53.470;9.832;2022-09-09T08:39:38;3.93;;;3.10;;
8100;SDS011;4093;53.470;9.832;2022-09-09T08:42:20;5.40;;;4.10;;
8100;SDS011;4093;53.470;9.832;2022-09-09T08:45:12;6.10;;;2.90;;
8100;SDS011;4093;53.470;9.832;2022-09-09T08:47:49;5.38;;;2.97;;
8100;SDS011;4093;53.470;9.832;2022-09-09T08:50:22;5.95;;;3.10;;
8100;SDS011;4093;53.470;9.832;2022-09-09T08:52:54;4.75;;;2.70;;
8100;SDS011;4093;53.470;9.832;2022-09-09T08:55:28;3.70;;;2.80;;
8100;SDS011;4093;53.470;9.832;2022-09-09T08:58:08;2.97;;;2.65;;
8100;SDS011;4093;53.470;9.832;2022-09-09T09:00:40;3.63;;;2.63;;
8100;SDS011;4093;53.470;9.832;2022-09-09T09:03:15;2.92;;;2.40;;
8100;SDS011;4093;53.470;9.832;2022-09-09T09:05:51;3.15;;;2.20;;
8100;SDS011;4093;53.470;9.832;2022-09-09T09:08:26;2.33;;;2.10;;
8100;SDS011;4093;53.470;9.832;2022-09-09T09:10:59;2.78;;;2.15;;
8100;SDS011;4093;53.470;9.832;2022-09-09T09:13:30;3.95;;;2.00;;
8100;SDS011;4093;53.470;9.832;2022-09-09T09:16:06;2.10;;;1.90;;
8100;SDS011;4093;53.470;9.832;2022-09-09T09:18:43;2.20;;;1.70;;
8100;SDS011;4093;53.470;9.832;2022-09-09T09:21:10;2.55;;;1.70;;
8100;SDS011;4093;53.470;9.832;2022-09-09T09:23:41;4.18;;;2.00;;
8100;SDS011;4093;53.470;9.832;2022-09-09T09:26:11;3.47;;;1.65;;
8100;SDS011;4093;53.470;9.832;2022-09-09T09:28:39;2.15;;;1.92;;
8100;SDS011;4093;53.470;9.832;2022-09-09T09:31:07;5.35;;;2.63;;
8100;SDS011;4093;53.470;9.832;2022-09-09T09:33:38;3.65;;;2.25;;
8100;SDS011;4093;53.470;9.832;2022-09-09T09:36:12;2.95;;;1.92;;
8100;SDS011;4093;53.470;9.832;2022-09-09T09:38:40;5.88;;;1.50;;
8100;SDS011;4093;53.470;9.832;2022-09-09T09:41:28;2.88;;;1.70;;
8100;SDS011;4093;53.470;9.832;2022-09-09T09:43:56;3.05;;;1.63;;
8100;SDS011;4093;53.470;9.832;2022-09-09T09:46:24;3.65;;;1.80;;
8100;SDS011;4093;53.470;9.832;2022-09-09T09:48:57;2.83;;;1.60;;
8100;SDS011;4093;53.470;9.832;2022-09-09T09:51:25;1.42;;;1.23;;
8100;SDS011;4093;53.470;9.832;2022-09-09T09:53:53;1.80;;;1.35;;
8100;SDS011;4093;53.470;9.832;2022-09-09T09:56:26;2.22;;;1.27;;
8100;SDS011;4093;53.470;9.832;2022-09-09T09:58:54;2.20;;;1.45;;
8100;SDS011;4093;53.470;9.832;2022-09-09T10:01:24;1.75;;;1.20;;
8100;SDS011;4093;53.470;9.832;2022-09-09T10:03:53;1.48;;;1.38;;
8100;SDS011;4093;53.470;9.832;2022-09-09T10:06:29;1.63;;;1.20;;
8100;SDS011;4093;53.470;9.832;2022-09-09T10:08:58;1.42;;;1.33;;
8100;SDS011;4093;53.470;9.832;2022-09-09T10:11:29;1.67;;;1.23;;
8100;SDS011;4093;53.470;9.832;2022-09-09T10:14:11;2.17;;;1.50;;
8100;SDS011;4093;53.470;9.832;2022-09-09T10:16:48;1.73;;;1.10;;
8100;SDS011;4093;53.470;9.832;2022-09-09T10:19:28;2.47;;;1.38;;
8100;SDS011;4093;53.470;9.832;2022-09-09T10:25:02;2.13;;;1.23;;
8100;SDS011;4093;53.470;9.832;2022-09-09T10:27:43;2.42;;;1.70;;
8100;SDS011;4093;53.470;9.832;2022-09-09T10:30:17;2.35;;;1.30;;
8100;SDS011;4093;53.470;9.832;2022-09-09T10:32:46;1.95;;;1.45;;
8100;SDS011;4093;53.470;9.832;2022-09-09T10:35:26;3.25;;;1.85;;
8100;SDS011;4093;53.470;9.832;2022-09-09T10:38:03;3.13;;;1.85;;
8100;SDS011;4093;53.470;9.832;2022-09-09T10:40:39;2.38;;;1.77;;
8100;SDS011;4093;53.470;9.832;2022-09-09T10:43:16;2.75;;;2.13;;
8100;SDS011;4093;53.470;9.832;2022-09-09T10:45:55;1.98;;;1.70;;
8100;SDS011;4093;53.470;9.832;2022-09-09T10:48:36;2.42;;;2.20;;
8100;SDS011;4093;53.470;9.832;2022-09-09T10:51:17;2.35;;;2.00;;
8100;SDS011;4093;53.470;9.832;2022-09-09T10:53:52;2.08;;;1.90;;
8100;SDS011;4093;53.470;9.832;2022-09-09T10:56:28;4.10;;;2.05;;
8100;SDS011;4093;53.470;9.832;2022-09-09T10:58:57;3.33;;;2.13;;
8100;SDS011;4093;53.470;9.832;2022-09-09T11:01:30;4.75;;;2.05;;
8100;SDS011;4093;53.470;9.832;2022-09-09T11:04:05;3.85;;;2.20;;
8100;SDS011;4093;53.470;9.832;2022-09-09T11:06:41;5.20;;;2.20;;
8100;SDS011;4093;53.470;9.832;2022-09-09T11:09:13;5.78;;;1.98;;
8100;SDS011;4093;53.470;9.832;2022-09-09T11:11:44;2.92;;;1.80;;
8100;SDS011;4093;53.470;9.832;2022-09-09T11:14:18;4.90;;;1.90;;
8100;SDS011;4093;53.470;9.832;2022-09-09T11:16:51;4.88;;;2.00;;
8100;SDS011;4093;53.470;9.832;2022-09-09T11:19:26;3.33;;;2.00;;
8100;SDS011;4093;53.470;9.832;2022-09-09T11:21:59;7.75;;;2.00;;
8100;SDS011;4093;53.470;9.832;2022-09-09T11:24:30;2.38;;;2.13;;
8100;SDS011;4093;53.470;9.832;2022-09-09T11:27:01;2.33;;;2.10;;
8100;SDS011;4093;53.470;9.832;2022-09-09T11:29:46;7.50;;;2.40;;
8100;SDS011;4093;53.470;9.832;2022-09-09T11:35:33;2.38;;;1.80;;
8100;SDS011;4093;53.470;9.832;2022-09-09T11:38:12;3.28;;;2.10;;
8100;SDS011;4093;53.470;9.832;2022-09-09T11:40:45;4.25;;;2.10;;
8100;SDS011;4093;53.470;9.832;2022-09-09T11:43:13;6.15;;;2.13;;
8100;SDS011;4093;53.470;9.832;2022-09-09T11:45:42;3.28;;;1.60;;
8100;SDS011;4093;53.470;9.832;2022-09-09T11:48:25;5.40;;;2.05;;
8100;SDS011;4093;53.470;9.832;2022-09-09T11:50:58;3.42;;;1.75;;
8100;SDS011;4093;53.470;9.832;2022-09-09T11:53:28;3.58;;;2.20;;
8100;SDS011;4093;53.470;9.832;2022-09-09T11:56:01;3.17;;;2.15;;
8100;SDS011;4093;53.470;9.832;2022-09-09T11:58:30;3.58;;;2.13;;
8100;SDS011;4093;53.470;9.832;2022-09-09T12:01:12;2.58;;;1.75;;
8100;SDS011;4093;53.470;9.832;2022-09-09T12:03:42;4.15;;;2.00;;
8100;SDS011;4093;53.470;9.832;2022-09-09T12:06:14;4.20;;;1.88;;
8100;SDS011;4093;53.470;9.832;2022-09-09T12:08:43;4.30;;;1.85;;
8100;SDS011;4093;53.470;9.832;2022-09-09T12:11:23;2.92;;;1.70;;
8100;SDS011;4093;53.470;9.832;2022-09-09T12:13:54;3.80;;;1.83;;
8100;SDS011;4093;53.470;9.832;2022-09-09T12:16:28;3.30;;;1.58;;
8100;SDS011;4093;53.470;9.832;2022-09-09T12:19:04;3.67;;;1.80;;
8100;SDS011;4093;53.470;9.832;2022-09-09T12:21:34;4.63;;;1.90;;
8100;SDS011;4093;53.470;9.832;2022-09-09T12:24:05;2.70;;;1.85;;
8100;SDS011;4093;53.470;9.832;2022-09-09T12:26:35;2.92;;;1.90;;
8100;SDS011;4093;53.470;9.832;2022-09-09T12:29:11;4.28;;;1.95;;
8100;SDS011;4093;53.470;9.832;2022-09-09T12:31:46;3.92;;;1.80;;
8100;SDS011;4093;53.470;9.832;2022-09-09T12:34:24;2.70;;;1.70;;
8100;SDS011;4093;53.470;9.832;2022-09-09T12:37:02;3.03;;;1.92;;
8100;SDS011;4093;53.470;9.832;2022-09-09T12:39:33;3.63;;;1.90;;
8100;SDS011;4093;53.470;9.832;2022-09-09T12:42:03;3.72;;;1.90;;
8100;SDS011;4093;53.470;9.832;2022-09-09T12:44:30;3.92;;;1.80;;
8100;SDS011;4093;53.470;9.832;2022-09-09T12:46:58;3.83;;;1.95;;
8100;SDS011;4093;53.470;9.832;2022-09-09T12:49:30;5.03;;;2.15;;
8100;SDS011;4093;53.470;9.832;2022-09-09T12:52:00;3.90;;;1.70;;
8100;SDS011;4093;53.470;9.832;2022-09-09T12:54:30;4.38;;;2.03;;
8100;SDS011;4093;53.470;9.832;2022-09-09T12:56:57;5.32;;;2.17;;
8100;SDS011;4093;53.470;9.832;2022-09-09T12:59:24;3.72;;;1.85;;
8100;SDS011;4093;53.470;9.832;2022-09-09T13:01:55;2.08;;;1.75;;
8100;SDS011;4093;53.470;9.832;2022-09-09T13:04:22;5.30;;;2.00;;
8100;SDS011;4093;53.470;9.832;2022-09-09T13:06:50;3.67;;;1.75;;
8100;SDS011;4093;53.470;9.832;2022-09-09T13:09:17;1.73;;;1.30;;
8100;SDS011;4093;53.470;9.832;2022-09-09T13:11:45;2.17;;;1.27;;
8100;SDS011;4093;53.470;9.832;2022-09-09T13:14:17;2.08;;;1.33;;
8100;SDS011;4093;53.470;9.832;2022-09-09T13:16:54;1.77;;;1.42;;
8100;SDS011;4093;53.470;9.832;2022-09-09T13:19:22;3.17;;;1.30;;
8100;SDS011;4093;53.470;9.832;2022-09-09T13:21:54;3.20;;;1.60;;
8100;SDS011;4093;53.470;9.832;2022-09-09T13:24:25;3.55;;;1.60;;
8100;SDS011;4093;53.470;9.832;2022-09-09T13:26:55;3.22;;;1.90;;
8100;SDS011;4093;53.470;9.832;2022-09-09T13:29:22;3.63;;;2.00;;
8100;SDS011;4093;53.470;9.832;2022-09-09T13:31:49;2.90;;;1.98;;
8100;SDS011;4093;53.470;9.832;2022-09-09T13:34:25;3.65;;;2.00;;
8100;SDS011;4093;53.470;9.832;2022-09-09T13:36:55;2.35;;;2.15;;
8100;SDS011;4093;53.470;9.832;2022-09-09T13:39:26;3.00;;;1.98;;
8100;SDS011;4093;53.470;9.832;2022-09-09T13:41:53;4.18;;;2.80;;
8100;SDS011;4093;53.470;9.832;2022-09-09T13:44:20;3.07;;;2.50;;
8100;SDS011;4093;53.470;9.832;2022-09-09T13:46:59;3.17;;;2.42;;
8100;SDS011;4093;53.470;9.832;2022-09-09T13:49:28;4.37;;;2.50;;
8100;SDS011;4093;53.470;9.832;2022-09-09T13:52:09;2.60;;;2.20;;
8100;SDS011;4093;53.470;9.832;2022-09-09T13:54:38;3.15;;;2.53;;
8100;SDS011;4093;53.470;9.832;2022-09-09T13:57:05;2.85;;;2.45;;
8100;SDS011;4093;53.470;9.832;2022-09-09T13:59:39;4.18;;;2.67;;
8100;SDS011;4093;53.470;9.832;2022-09-09T14:02:06;3.70;;;2.40;;
8100;SDS011;4093;53.470;9.832;2022-09-09T14:04:33;4.50;;;2.40;;
8100;SDS011;4093;53.470;9.832;2022-09-09T14:07:00;2.50;;;2.30;;
8100;SDS011;4093;53.470;9.832;2022-09-09T14:09:29;4.13;;;2.63;;
8100;SDS011;4093;53.470;9.832;2022-09-09T14:11:55;3.17;;;2.50;;
8100;SDS011;4093;53.470;9.832;2022-09-09T14:14:22;6.07;;;3.40;;
8100;SDS011;4093;53.470;9.832;2022-09-09T14:16:50;3.77;;;2.73;;
8100;SDS011;4093;53.470;9.832;2022-09-09T14:19:16;4.60;;;3.00;;
8100;SDS011;4093;53.470;9.832;2022-09-09T14:21:43;8.17;;;5.93;;
8100;SDS011;4093;53.470;9.832;2022-09-09T14:24:09;5.47;;;3.17;;
8100;SDS011;4093;53.470;9.832;2022-09-09T14:26:38;9.23;;;6.97;;
8100;SDS011;4093;53.470;9.832;2022-09-09T14:29:05;9.50;;;7.57;;
8100;SDS011;4093;53.470;9.832;2022-09-09T14:31:32;8.60;;;3.70;;
8100;SDS011;4093;53.470;9.832;2022-09-09T14:33:58;3.95;;;3.10;;
8100;SDS011;4093;53.470;9.832;2022-09-09T14:36:25;3.38;;;2.63;;
8100;SDS011;4093;53.470;9.832;2022-09-09T14:38:51;4.10;;;2.70;;
8100;SDS011;4093;53.470;9.832;2022-09-09T14:41:18;3.03;;;2.20;;
8100;SDS011;4093;53.470;9.832;2022-09-09T14:43:48;3.53;;;2.65;;
8100;SDS011;4093;53.470;9.832;2022-09-09T14:46:17;3.95;;;2.40;;
8100;SDS011;4093;53.470;9.832;2022-09-09T14:48:45;7.18;;;2.58;;
8100;SDS011;4093;53.470;9.832;2022-09-09T14:51:14;2.88;;;2.30;;
8100;SDS011;4093;53.470;9.832;2022-09-09T14:53:42;2.60;;;2.40;;
8100;SDS011;4093;53.470;9.832;2022-09-09T14:56:10;3.05;;;2.33;;
8100;SDS011;4093;53.470;9.832;2022-09-09T14:58:38;2.80;;;2.42;;
8100;SDS011;4093;53.470;9.832;2022-09-09T15:01:07;5.88;;;2.47;;
8100;SDS011;4093;53.470;9.832;2022-09-09T15:03:35;2.60;;;2.40;;
8100;SDS011;4093;53.470;9.832;2022-09-09T15:06:05;6.13;;;2.45;;
8100;SDS011;4093;53.470;9.832;2022-09-09T15:08:33;3.22;;;2.28;;
8100;SDS011;4093;53.470;9.832;2022-09-09T15:11:00;2.55;;;2.20;;
8100;SDS011;4093;53.470;9.832;2022-09-09T15:13:27;6.85;;;2.80;;
8100;SDS011;4093;53.470;9.832;2022-09-09T15:15:54;5.30;;;2.60;;
8100;SDS011;4093;53.470;9.832;2022-09-09T15:18:21;4.25;;;2.50;;
8100;SDS011;4093;53.470;9.832;2022-09-09T15:20:48;5.60;;;2.60;;
8100;SDS011;4093;53.470;9.832;2022-09-09T15:23:15;2.75;;;2.33;;
8100;SDS011;4093;53.470;9.832;2022-09-09T15:25:49;3.15;;;2.28;;
8100;SDS011;4093;53.470;9.832;2022-09-09T15:28:17;3.28;;;2.47;;
8100;SDS011;4093;53.470;9.832;2022-09-09T15:30:43;3.67;;;2.45;;